Time;durP1;ratioP1;P1;durP2;ratioP2;P2;SDS_P1;SDS_P2;PMS_P1;PMS_P2;Temp;Humidity;BMP_temperature;BMP_pressure;BME280_temperature;BME280_humidity;BME280_pressure;Samples;Min_cycle;Max_cycle;Signal;HPM_P1;HPM_P2
2022/10/08 00:00:07;;;;;;;17.75;9.95;;;;;;;;;;4974677;28;20030;-67
2022/10/08 00:02:33;;;;;;;19.25;10.13;;;;;;;;;;4974804;28;20034;-69
2022/10/08 00:04:58;;;;;;;21.05;10.65;;;;;;;;;;4974367;28;20023;-68
2022/10/08 00:07:24;;;;;;;18.70;10.25;;;;;;;;;;4974872;28;20112;-68
2022/10/08 00:09:49;;;;;;;20.27;9.95;;;;;;;;;;4974645;28;20030;-68
2022/10/08 00:12:15;;;;;;;19.02;10.80;;;;;;;;;;4974485;28;20031;-68
2022/10/08 00:14:41;;;;;;;19.75;11.00;;;;;;;;;;4974805;28;20031;-68
2022/10/08 00:17:07;;;;;;;17.92;9.43;;;;;;;;;;4974721;28;20366;-69
2022/10/08 00:19:32;;;;;;;20.15;9.95;;;;;;;;;;4974342;28;20131;-68
2022/10/08 00:21:58;;;;;;;17.90;10.23;;;;;;;;;;4993736;28;20141;-68
2022/10/08 00:24:23;;;;;;;17.33;8.65;;;;;;;;;;4994342;28;20517;-68
2022/10/08 00:26:50;;;;;;;17.60;8.48;;;;;;;;;;4994112;28;20392;-68
2022/10/08 00:29:18;;;;;;;18.98;9.90;;;;;;;;;;4994202;28;20053;-68
2022/10/08 00:31:46;;;;;;;17.92;8.65;;;;;;;;;;4994178;28;20037;-68
2022/10/08 00:34:18;;;;;;;18.23;9.15;;;;;;;;;;4993909;28;20069;-68
2022/10/08 00:36:44;;;;;;;10.80;5.22;;;;;;;;;;4994287;28;20054;-67
2022/10/08 00:39:15;;;;;;;12.02;6.38;;;;;;;;;;4994255;28;20018;-68
2022/10/08 00:41:43;;;;;;;15.75;7.60;;;;;;;;;;4994034;28;20495;-68
2022/10/08 00:44:46;;;;;;;15.45;8.40;;;;;;;;;;4985626;28;20027;-68
2022/10/08 00:47:30;;;;;;;19.67;7.85;;;;;;;;;;4973899;28;20437;-68
2022/10/08 00:49:59;;;;;;;14.30;8.25;;;;;;;;;;4974103;28;20093;-68
2022/10/08 00:52:27;;;;;;;11.27;5.20;;;;;;;;;;4974497;28;20086;-68
2022/10/08 00:54:53;;;;;;;13.82;6.95;;;;;;;;;;4974422;28;20035;-69
2022/10/08 00:57:20;;;;;;;13.75;5.90;;;;;;;;;;4974511;28;20034;-68
2022/10/08 00:59:46;;;;;;;13.07;5.30;;;;;;;;;;4974235;28;20466;-70
2022/10/08 01:02:12;;;;;;;8.18;4.68;;;;;;;;;;4974271;28;20105;-67
2022/10/08 01:04:41;;;;;;;11.98;4.88;;;;;;;;;;4974198;28;20118;-68
2022/10/08 01:07:33;;;;;;;9.05;4.03;;;;;;;;;;4972918;28;20380;-68
2022/10/08 01:10:14;;;;;;;10.02;4.43;;;;;;;;;;4974122;28;20435;-68
2022/10/08 01:13:01;;;;;;;9.13;4.20;;;;;;;;;;4974233;28;20033;-68
2022/10/08 01:15:56;;;;;;;8.73;4.00;;;;;;;;;;4974165;28;20031;-68
2022/10/08 01:18:24;;;;;;;11.13;3.80;;;;;;;;;;4973848;28;20033;-68
2022/10/08 01:21:37;;;;;;;10.38;3.70;;;;;;;;;;4984150;28;20034;-68
2022/10/08 01:24:03;;;;;;;7.25;3.80;;;;;;;;;;4991129;28;20042;-68
2022/10/08 01:27:12;;;;;;;8.75;4.18;;;;;;;;;;4993115;28;20061;-68
2022/10/08 01:29:45;;;;;;;8.70;3.50;;;;;;;;;;4988100;28;20047;-68
2022/10/08 01:32:19;;;;;;;8.38;3.53;;;;;;;;;;4992810;28;20066;-68
2022/10/08 01:34:59;;;;;;;10.20;4.03;;;;;;;;;;4992986;28;20034;-68
2022/10/08 01:37:35;;;;;;;7.18;3.60;;;;;;;;;;4993157;28;20294;-68
2022/10/08 01:40:07;;;;;;;10.63;4.88;;;;;;;;;;4993080;28;20035;-68
2022/10/08 01:42:35;;;;;;;7.38;4.10;;;;;;;;;;4992930;28;20033;-68
2022/10/08 01:45:06;;;;;;;7.85;4.05;;;;;;;;;;4993044;28;20036;-68
2022/10/08 01:47:38;;;;;;;7.82;4.03;;;;;;;;;;4992962;28;20057;-68
2022/10/08 01:50:13;;;;;;;10.82;3.80;;;;;;;;;;4993171;28;20030;-68
2022/10/08 01:52:46;;;;;;;7.25;3.47;;;;;;;;;;4993093;28;20049;-68
2022/10/08 01:55:30;;;;;;;8.52;4.05;;;;;;;;;;4993034;28;20025;-68
2022/10/08 01:58:01;;;;;;;12.90;4.63;;;;;;;;;;4992918;28;20033;-68
2022/10/08 02:00:26;;;;;;;9.45;3.83;;;;;;;;;;4994068;28;20030;-67
2022/10/08 02:02:54;;;;;;;6.47;3.53;;;;;;;;;;4996788;28;20519;-67
2022/10/08 02:05:23;;;;;;;8.57;4.20;;;;;;;;;;4996916;28;20032;-67
2022/10/08 02:07:49;;;;;;;8.27;4.30;;;;;;;;;;4996892;28;20057;-68
2022/10/08 02:10:21;;;;;;;8.02;4.18;;;;;;;;;;4996740;28;20402;-67
2022/10/08 02:12:47;;;;;;;9.05;4.30;;;;;;;;;;4996556;28;20049;-67
2022/10/08 02:15:36;;;;;;;10.35;3.90;;;;;;;;;;4996550;28;20022;-67
2022/10/08 02:18:09;;;;;;;10.80;3.97;;;;;;;;;;4996848;28;20035;-68
2022/10/08 02:20:45;;;;;;;7.85;3.83;;;;;;;;;;4980079;28;20051;-70
2022/10/08 02:23:22;;;;;;;9.88;4.00;;;;;;;;;;4958008;28;20069;-69
2022/10/08 02:25:56;;;;;;;6.97;3.63;;;;;;;;;;4957967;28;20488;-70
2022/10/08 02:28:47;;;;;;;10.75;3.90;;;;;;;;;;4958058;29;20098;-69
2022/10/08 02:31:18;;;;;;;7.15;3.85;;;;;;;;;;4957646;28;20027;-66
2022/10/08 02:33:55;;;;;;;9.02;3.97;;;;;;;;;;4957717;28;20027;-68
2022/10/08 02:36:27;;;;;;;8.55;4.10;;;;;;;;;;4957698;28;20473;-67
2022/10/08 02:39:00;;;;;;;8.07;3.92;;;;;;;;;;4957757;28;20023;-68
2022/10/08 02:41:30;;;;;;;8.40;4.07;;;;;;;;;;4957606;28;20129;-69
2022/10/08 02:43:58;;;;;;;9.55;3.70;;;;;;;;;;4957519;28;20042;-67
2022/10/08 02:46:27;;;;;;;9.10;3.92;;;;;;;;;;4957399;28;20392;-67
2022/10/08 02:49:11;;;;;;;10.10;3.78;;;;;;;;;;4957098;28;20036;-66
2022/10/08 02:51:40;;;;;;;9.75;3.75;;;;;;;;;;4957399;28;20055;-67
2022/10/08 02:54:07;;;;;;;9.65;3.80;;;;;;;;;;4957439;28;20500;-69
2022/10/08 02:57:00;;;;;;;6.53;3.40;;;;;;;;;;4957301;28;20035;-67
2022/10/08 02:59:25;;;;;;;9.43;4.57;;;;;;;;;;4957049;28;20023;-68
2022/10/08 03:01:58;;;;;;;6.60;3.90;;;;;;;;;;4957489;28;20494;-69
2022/10/08 03:04:53;;;;;;;6.35;3.47;;;;;;;;;;4957356;28;20024;-68
2022/10/08 03:07:21;;;;;;;8.02;3.95;;;;;;;;;;4955223;29;20039;-68
2022/10/08 03:09:50;;;;;;;6.78;3.50;;;;;;;;;;4957232;28;20388;-68
2022/10/08 03:12:17;;;;;;;6.30;4.25;;;;;;;;;;4956743;28;20035;-68
2022/10/08 03:14:46;;;;;;;9.82;3.70;;;;;;;;;;4956768;28;20019;-69
2022/10/08 03:17:14;;;;;;;9.40;3.22;;;;;;;;;;4957061;28;20090;-68
2022/10/08 03:19:40;;;;;;;7.93;3.70;;;;;;;;;;4956605;28;20049;-68
2022/10/08 03:22:06;;;;;;;7.95;3.58;;;;;;;;;;4956939;28;20114;-68
2022/10/08 03:24:31;;;;;;;7.32;3.78;;;;;;;;;;4956986;28;20051;-69
2022/10/08 03:26:57;;;;;;;7.00;3.22;;;;;;;;;;4956956;28;20027;-69
2022/10/08 03:29:23;;;;;;;6.13;3.30;;;;;;;;;;4956651;28;20426;-70
2022/10/08 03:31:49;;;;;;;7.60;3.90;;;;;;;;;;4956860;28;20078;-68
2022/10/08 03:34:15;;;;;;;6.88;3.80;;;;;;;;;;4956750;28;20102;-69
2022/10/08 03:36:40;;;;;;;5.78;3.45;;;;;;;;;;4956619;28;20111;-67
2022/10/08 03:39:06;;;;;;;9.57;3.65;;;;;;;;;;4955343;28;20189;-67
2022/10/08 03:41:31;;;;;;;6.05;3.30;;;;;;;;;;4956443;28;20066;-65
2022/10/08 03:43:58;;;;;;;9.55;3.40;;;;;;;;;;4956300;28;20031;-65
2022/10/08 03:46:24;;;;;;;7.30;3.55;;;;;;;;;;4956712;28;20477;-65
2022/10/08 03:48:49;;;;;;;11.75;3.70;;;;;;;;;;4956333;28;20141;-65
2022/10/08 03:51:17;;;;;;;10.55;4.03;;;;;;;;;;4956318;28;20539;-66
2022/10/08 03:53:43;;;;;;;8.15;3.50;;;;;;;;;;4956258;28;20449;-66
2022/10/08 03:56:18;;;;;;;11.40;3.45;;;;;;;;;;4956230;28;20446;-66
2022/10/08 03:58:43;;;;;;;11.45;4.10;;;;;;;;;;4955914;28;20109;-66
2022/10/08 04:01:16;;;;;;;8.23;4.72;;;;;;;;;;4956108;28;20062;-66
2022/10/08 04:03:44;;;;;;;7.43;3.55;;;;;;;;;;4956138;28;20031;-66
2022/10/08 04:06:10;;;;;;;12.88;3.90;;;;;;;;;;4956025;28;20031;-67
2022/10/08 04:08:35;;;;;;;9.95;4.05;;;;;;;;;;4955935;28;20046;-67
2022/10/08 04:11:03;;;;;;;7.82;3.17;;;;;;;;;;4955854;28;20031;-67
2022/10/08 04:13:29;;;;;;;9.68;3.72;;;;;;;;;;4955969;28;20023;-68
2022/10/08 04:16:03;;;;;;;9.05;3.97;;;;;;;;;;4955876;28;20472;-67
2022/10/08 04:18:29;;;;;;;9.55;3.80;;;;;;;;;;4955834;28;20031;-67
2022/10/08 04:20:58;;;;;;;6.78;3.20;;;;;;;;;;4955465;28;20555;-67
2022/10/08 04:23:24;;;;;;;8.95;3.70;;;;;;;;;;4954780;28;20058;-67
2022/10/08 04:25:50;;;;;;;5.85;3.72;;;;;;;;;;4955584;28;20027;-67
2022/10/08 04:28:16;;;;;;;7.22;4.00;;;;;;;;;;4955544;28;20381;-67
2022/10/08 04:30:42;;;;;;;6.88;3.50;;;;;;;;;;4955396;28;20019;-66
2022/10/08 04:33:07;;;;;;;7.68;4.00;;;;;;;;;;4955579;28;20030;-67
2022/10/08 04:35:37;;;;;;;7.80;4.22;;;;;;;;;;4955338;28;20039;-67
2022/10/08 04:38:02;;;;;;;8.93;4.50;;;;;;;;;;4955392;28;20023;-68
2022/10/08 04:40:28;;;;;;;9.05;4.35;;;;;;;;;;4955138;28;20073;-68
2022/10/08 04:42:53;;;;;;;9.10;4.30;;;;;;;;;;4955240;28;20089;-69
2022/10/08 04:45:18;;;;;;;9.38;4.53;;;;;;;;;;4955319;28;20074;-67
2022/10/08 04:47:44;;;;;;;9.43;4.68;;;;;;;;;;4955145;28;20037;-67
2022/10/08 04:50:10;;;;;;;10.70;4.50;;;;;;;;;;4955108;28;20043;-68
2022/10/08 04:52:35;;;;;;;10.93;4.97;;;;;;;;;;4954927;28;20433;-68
2022/10/08 04:55:01;;;;;;;11.90;4.80;;;;;;;;;;4954828;28;20027;-68
2022/10/08 04:57:26;;;;;;;17.55;5.30;;;;;;;;;;4955023;28;20082;-67
2022/10/08 04:59:51;;;;;;;12.93;5.53;;;;;;;;;;4954465;28;20067;-67
2022/10/08 05:02:17;;;;;;;12.43;5.82;;;;;;;;;;4954953;28;20023;-67
2022/10/08 05:04:42;;;;;;;11.60;5.88;;;;;;;;;;4955027;28;20031;-68
2022/10/08 05:07:08;;;;;;;16.80;5.88;;;;;;;;;;4955086;28;20152;-68
2022/10/08 05:09:33;;;;;;;10.18;5.20;;;;;;;;;;4954697;28;20043;-68
2022/10/08 05:11:59;;;;;;;12.18;5.22;;;;;;;;;;4954857;28;20481;-68
2022/10/08 05:14:24;;;;;;;10.98;5.47;;;;;;;;;;4954864;28;20023;-68
2022/10/08 05:16:50;;;;;;;8.25;4.05;;;;;;;;;;4954873;29;20031;-67
2022/10/08 05:19:15;;;;;;;8.38;4.47;;;;;;;;;;4954541;28;20063;-67
2022/10/08 05:21:41;;;;;;;8.95;4.53;;;;;;;;;;4954705;28;20035;-67
2022/10/08 05:24:07;;;;;;;10.40;4.88;;;;;;;;;;4954644;28;20483;-68
2022/10/08 05:26:38;;;;;;;7.22;4.63;;;;;;;;;;4954797;28;20027;-69
2022/10/08 05:29:04;;;;;;;8.10;4.55;;;;;;;;;;4954723;28;20053;-68
2022/10/08 05:31:30;;;;;;;11.52;4.72;;;;;;;;;;4954721;28;20038;-67
2022/10/08 05:33:57;;;;;;;13.05;5.25;;;;;;;;;;4954619;28;20086;-70
2022/10/08 05:36:26;;;;;;;10.27;4.53;;;;;;;;;;4954691;28;20031;-68
2022/10/08 05:38:52;;;;;;;8.63;4.28;;;;;;;;;;4954336;28;20070;-68
2022/10/08 05:41:24;;;;;;;7.53;4.82;;;;;;;;;;4954641;28;20051;-68
2022/10/08 05:43:52;;;;;;;9.07;5.13;;;;;;;;;;4954669;28;20039;-68
2022/10/08 05:46:18;;;;;;;9.10;4.82;;;;;;;;;;4954661;28;20023;-68
2022/10/08 05:48:44;;;;;;;6.85;4.60;;;;;;;;;;4954412;28;20106;-67
2022/10/08 05:51:12;;;;;;;6.93;4.32;;;;;;;;;;4958129;28;20023;-68
2022/10/08 05:53:40;;;;;;;9.05;4.72;;;;;;;;;;4973627;28;20038;-68
2022/10/08 05:56:08;;;;;;;13.98;5.93;;;;;;;;;;4973596;28;20042;-68
2022/10/08 05:58:35;;;;;;;10.15;5.15;;;;;;;;;;4973652;28;20170;-67
2022/10/08 06:01:02;;;;;;;14.02;5.75;;;;;;;;;;4973561;28;20069;-67
2022/10/08 06:03:28;;;;;;;13.70;6.82;;;;;;;;;;4972501;28;20491;-68
2022/10/08 06:05:54;;;;;;;11.43;6.97;;;;;;;;;;4973603;28;20055;-67
2022/10/08 06:08:21;;;;;;;11.55;7.10;;;;;;;;;;4973439;28;20034;-67
2022/10/08 06:10:54;;;;;;;12.15;6.70;;;;;;;;;;4973668;28;20023;-67
2022/10/08 06:13:20;;;;;;;14.82;7.03;;;;;;;;;;4989880;28;20383;-67
2022/10/08 06:15:59;;;;;;;10.07;6.05;;;;;;;;;;4976561;28;20031;-67
2022/10/08 06:18:26;;;;;;;13.10;6.47;;;;;;;;;;4984366;28;20039;-66
2022/10/08 06:20:52;;;;;;;9.75;5.05;;;;;;;;;;4984787;28;20057;-66
2022/10/08 06:23:18;;;;;;;10.57;5.07;;;;;;;;;;4992509;28;20149;-66
2022/10/08 06:25:44;;;;;;;15.32;5.80;;;;;;;;;;4976625;28;20026;-69
2022/10/08 06:28:10;;;;;;;9.23;5.38;;;;;;;;;;4986423;28;20487;-70
2022/10/08 06:30:37;;;;;;;9.63;4.95;;;;;;;;;;4982500;28;20034;-70
2022/10/08 06:33:03;;;;;;;6.55;4.25;;;;;;;;;;4979437;28;20114;-71
2022/10/08 06:35:29;;;;;;;9.30;4.68;;;;;;;;;;4987942;28;20461;-70
2022/10/08 06:37:54;;;;;;;11.30;4.53;;;;;;;;;;4975805;28;20149;-71
2022/10/08 06:40:20;;;;;;;8.20;4.55;;;;;;;;;;4985001;28;20071;-69
2022/10/08 06:42:45;;;;;;;10.68;4.72;;;;;;;;;;4973506;28;20023;-70
2022/10/08 06:45:11;;;;;;;8.05;4.60;;;;;;;;;;4973372;28;20117;-67
2022/10/08 06:47:36;;;;;;;7.45;4.63;;;;;;;;;;4969739;28;20424;-68
2022/10/08 06:50:02;;;;;;;10.60;4.50;;;;;;;;;;4970592;28;20461;-67
2022/10/08 06:52:27;;;;;;;8.60;4.10;;;;;;;;;;4969870;28;20074;-68
2022/10/08 06:54:53;;;;;;;6.70;4.03;;;;;;;;;;4966612;28;20059;-69
2022/10/08 06:57:18;;;;;;;12.65;5.43;;;;;;;;;;4957196;28;20370;-67
2022/10/08 06:59:44;;;;;;;17.92;7.47;;;;;;;;;;4956976;28;20065;-67
2022/10/08 07:02:10;;;;;;;12.50;7.18;;;;;;;;;;4957131;28;20031;-69
2022/10/08 07:04:35;;;;;;;11.52;6.07;;;;;;;;;;4956435;28;20039;-71
2022/10/08 07:07:01;;;;;;;7.50;4.75;;;;;;;;;;4956657;28;20027;-71
2022/10/08 07:09:26;;;;;;;10.23;4.95;;;;;;;;;;4956435;28;20031;-68
2022/10/08 07:11:52;;;;;;;10.43;5.20;;;;;;;;;;4955107;28;20030;-67
2022/10/08 07:14:17;;;;;;;12.57;5.22;;;;;;;;;;4955008;28;20015;-68
2022/10/08 07:16:43;;;;;;;12.13;4.63;;;;;;;;;;4954916;28;20031;-70
2022/10/08 07:19:08;;;;;;;8.77;4.43;;;;;;;;;;4954931;28;20365;-71
2022/10/08 07:21:34;;;;;;;9.13;3.80;;;;;;;;;;4986964;28;20030;-70
2022/10/08 07:24:00;;;;;;;10.45;3.92;;;;;;;;;;4993611;28;20031;-68
2022/10/08 07:26:28;;;;;;;6.15;3.28;;;;;;;;;;4993741;28;20032;-67
2022/10/08 07:28:53;;;;;;;7.95;3.70;;;;;;;;;;4993442;28;20022;-67
2022/10/08 07:31:22;;;;;;;11.65;3.80;;;;;;;;;;4994884;28;20049;-66
2022/10/08 07:33:48;;;;;;;10.48;3.85;;;;;;;;;;4995725;28;20030;-67
2022/10/08 07:36:21;;;;;;;11.77;3.92;;;;;;;;;;4995255;28;20033;-67
2022/10/08 07:38:51;;;;;;;8.68;3.78;;;;;;;;;;4995367;28;20427;-68
2022/10/08 07:41:16;;;;;;;11.57;3.40;;;;;;;;;;4994157;28;20418;-69
2022/10/08 07:43:42;;;;;;;14.88;4.30;;;;;;;;;;4995422;28;20113;-71
2022/10/08 07:46:10;;;;;;;10.90;3.97;;;;;;;;;;4995347;28;20030;-67
2022/10/08 07:48:35;;;;;;;10.88;3.72;;;;;;;;;;4994997;28;20030;-68
2022/10/08 07:51:14;;;;;;;10.32;3.83;;;;;;;;;;4995192;28;20026;-71
2022/10/08 07:53:39;;;;;;;11.38;4.28;;;;;;;;;;4995351;28;20048;-68
2022/10/08 07:56:06;;;;;;;12.55;4.13;;;;;;;;;;4995250;28;20476;-69
2022/10/08 07:58:31;;;;;;;9.88;3.63;;;;;;;;;;4994011;28;20109;-66
2022/10/08 08:00:58;;;;;;;11.90;3.60;;;;;;;;;;4994962;28;20535;-71
2022/10/08 08:03:24;;;;;;;10.52;3.45;;;;;;;;;;4994845;28;20109;-67
2022/10/08 08:05:50;;;;;;;10.85;3.28;;;;;;;;;;4994808;28;20026;-71
2022/10/08 08:08:16;;;;;;;9.32;3.40;;;;;;;;;;4994842;28;20528;-72
2022/10/08 08:10:42;;;;;;;6.53;3.20;;;;;;;;;;4994668;28;20026;-72
2022/10/08 08:13:07;;;;;;;11.68;2.72;;;;;;;;;;4994845;28;20538;-72
2022/10/08 08:15:33;;;;;;;10.25;3.17;;;;;;;;;;4994789;28;20117;-70
2022/10/08 08:17:58;;;;;;;11.23;3.70;;;;;;;;;;4994544;28;20031;-66
2022/10/08 08:20:23;;;;;;;11.90;4.80;;;;;;;;;;4994445;28;20050;-68
2022/10/08 08:22:49;;;;;;;7.97;3.72;;;;;;;;;;4994644;28;20037;-68
2022/10/08 08:25:14;;;;;;;11.82;3.78;;;;;;;;;;4994325;28;20089;-67
2022/10/08 08:27:40;;;;;;;8.23;2.70;;;;;;;;;;4994646;28;20026;-67
2022/10/08 08:30:06;;;;;;;7.13;2.63;;;;;;;;;;4994409;28;20034;-67
2022/10/08 08:32:31;;;;;;;6.10;3.03;;;;;;;;;;4994377;28;20022;-67
2022/10/08 08:34:57;;;;;;;9.25;3.05;;;;;;;;;;4994566;28;20029;-68
2022/10/08 08:37:22;;;;;;;11.80;3.70;;;;;;;;;;4994383;28;20026;-70
2022/10/08 08:39:48;;;;;;;7.78;2.80;;;;;;;;;;4994500;28;20037;-70
2022/10/08 08:42:32;;;;;;;11.15;2.80;;;;;;;;;;4994218;28;20124;-71
2022/10/08 08:45:05;;;;;;;12.27;3.25;;;;;;;;;;4994095;28;20030;-71
2022/10/08 08:47:36;;;;;;;7.90;2.70;;;;;;;;;;4993873;28;20041;-68
2022/10/08 08:50:04;;;;;;;15.73;3.40;;;;;;;;;;4993951;28;20045;-72
2022/10/08 08:52:33;;;;;;;11.95;2.90;;;;;;;;;;4994111;28;20307;-69
2022/10/08 08:55:00;;;;;;;8.77;2.93;;;;;;;;;;4994167;28;20030;-68
2022/10/08 08:57:28;;;;;;;10.32;2.90;;;;;;;;;;4994007;28;20034;-70
2022/10/08 08:59:59;;;;;;;13.85;2.97;;;;;;;;;;4993948;28;20033;-69
2022/10/08 09:02:30;;;;;;;8.77;2.70;;;;;;;;;;4993804;28;20029;-67
2022/10/08 09:05:02;;;;;;;10.82;2.58;;;;;;;;;;4993991;28;20388;-66
2022/10/08 09:07:38;;;;;;;8.13;3.13;;;;;;;;;;4993810;28;20438;-70
2022/10/08 09:10:08;;;;;;;9.90;3.08;;;;;;;;;;4993524;28;20029;-66
2022/10/08 09:12:38;;;;;;;;;;;;;;;;;;4994116;28;20373;-67
2022/10/08 09:15:12;;;;;;;10.98;3.00;;;;;;;;;;4993850;28;19914;-69
2022/10/08 09:17:39;;;;;;;11.25;3.08;;;;;;;;;;4993654;28;20110;-68
2022/10/08 09:20:05;;;;;;;10.60;2.97;;;;;;;;;;4993119;28;20050;-67
2022/10/08 09:22:40;;;;;;;10.35;2.90;;;;;;;;;;4993597;28;20089;-66
2022/10/08 09:25:13;;;;;;;12.30;3.03;;;;;;;;;;4993753;28;20023;-66
2022/10/08 09:27:58;;;;;;;7.47;2.65;;;;;;;;;;4993658;28;20019;-65
2022/10/08 09:30:29;;;;;;;8.23;2.85;;;;;;;;;;4993214;28;20026;-71
2022/10/08 09:32:58;;;;;;;9.57;3.15;;;;;;;;;;4993335;28;20030;-66
2022/10/08 09:35:24;;;;;;;9.18;2.70;;;;;;;;;;4993466;28;20109;-66
2022/10/08 09:37:50;;;;;;;8.32;2.50;;;;;;;;;;4993514;28;20169;-67
2022/10/08 09:40:20;;;;;;;8.52;2.70;;;;;;;;;;4993513;28;20490;-66
2022/10/08 09:43:00;;;;;;;;;;;;;;;;;;4993958;28;20076;-67
2022/10/08 09:45:28;;;;;;;;;;;;;;;;;;4993535;28;19921;-67
2022/10/08 09:48:23;;;;;;;10.00;3.03;;;;;;;;;;4993388;28;19917;-68
2022/10/08 09:51:04;;;;;;;11.02;2.95;;;;;;;;;;4993121;28;20030;-66
2022/10/08 09:53:45;;;;;;;9.73;2.90;;;;;;;;;;4993219;28;20026;-67
2022/10/08 09:56:12;;;;;;;12.38;3.33;;;;;;;;;;4993249;28;20377;-67
2022/10/08 09:58:51;;;;;;;11.88;3.30;;;;;;;;;;4993262;28;20030;-69
2022/10/08 10:01:17;;;;;;;13.45;4.22;;;;;;;;;;4992864;28;20034;-67
2022/10/08 10:04:01;;;;;;;13.68;3.08;;;;;;;;;;4993298;28;20022;-65
2022/10/08 10:06:39;;;;;;;10.30;3.13;;;;;;;;;;4993070;28;20038;-65
2022/10/08 10:09:10;;;;;;;10.43;2.63;;;;;;;;;;4993255;28;20062;-65
2022/10/08 10:11:50;;;;;;;14.38;2.50;;;;;;;;;;4993158;28;20030;-66
2022/10/08 10:14:26;;;;;;;14.73;3.33;;;;;;;;;;4993139;28;20031;-65
2022/10/08 10:17:00;;;;;;;14.52;3.17;;;;;;;;;;4993183;28;20072;-66
2022/10/08 10:19:31;;;;;;;15.30;3.30;;;;;;;;;;4992951;28;20057;-66
2022/10/08 10:22:26;;;;;;;9.13;2.75;;;;;;;;;;4994629;28;20117;-66
2022/10/08 10:24:57;;;;;;;10.60;2.50;;;;;;;;;;4975166;28;20151;-66
2022/10/08 10:27:28;;;;;;;10.55;3.15;;;;;;;;;;4975216;28;20061;-68
2022/10/08 10:30:13;;;;;;;8.27;2.65;;;;;;;;;;4974737;28;20053;-69
2022/10/08 10:33:01;;;;;;;10.52;2.88;;;;;;;;;;4975163;28;20038;-64
2022/10/08 10:35:29;;;;;;;9.20;3.17;;;;;;;;;;4975124;28;20534;-68
2022/10/08 10:38:26;;;;;;;9.32;3.03;;;;;;;;;;4975013;28;20580;-65
2022/10/08 10:40:55;;;;;;;10.75;3.53;;;;;;;;;;4974929;28;20038;-68
2022/10/08 10:43:38;;;;;;;14.77;3.67;;;;;;;;;;4974601;28;20035;-69
2022/10/08 10:46:22;;;;;;;10.70;3.30;;;;;;;;;;4958763;28;20031;-66
2022/10/08 10:48:48;;;;;;;8.70;3.15;;;;;;;;;;4974673;28;20122;-71
2022/10/08 10:51:28;;;;;;;9.48;3.08;;;;;;;;;;4974611;28;20031;-66
2022/10/08 10:53:57;;;;;;;13.23;3.90;;;;;;;;;;4974794;28;20026;-69
2022/10/08 10:56:28;;;;;;;14.25;3.65;;;;;;;;;;4974603;28;20494;-66
2022/10/08 10:59:02;;;;;;;8.85;2.78;;;;;;;;;;4974614;28;20035;-67
2022/10/08 11:01:57;;;;;;;11.23;3.38;;;;;;;;;;4984078;28;20030;-66
2022/10/08 11:04:40;;;;;;;13.18;4.25;;;;;;;;;;4996170;28;20030;-66
2022/10/08 11:07:36;;;;;;;9.15;3.50;;;;;;;;;;4996111;28;20069;-69
2022/10/08 11:10:27;;;;;;;9.55;2.88;;;;;;;;;;4996019;28;20110;-67
2022/10/08 11:13:11;;;;;;;;;;;;;;;;;;4996088;28;20109;-67
2022/10/08 11:15:59;;;;;;;7.18;2.70;;;;;;;;;;4995788;28;19949;-67
2022/10/08 11:19:03;;;;;;;10.70;3.20;;;;;;;;;;4995597;28;20030;-69
2022/10/08 11:21:49;;;;;;;13.60;3.03;;;;;;;;;;4994012;28;20043;-66
2022/10/08 11:24:47;;;;;;;9.73;3.25;;;;;;;;;;4994226;28;20038;-67
2022/10/08 11:27:41;;;;;;;9.02;2.92;;;;;;;;;;4995313;28;20084;-67
2022/10/08 11:30:20;;;;;;;14.73;3.53;;;;;;;;;;4995246;28;20539;-68
2022/10/08 11:32:52;;;;;;;11.63;2.93;;;;;;;;;;4995194;28;20483;-68
2022/10/08 11:35:37;;;;;;;12.65;3.38;;;;;;;;;;4995236;28;20031;-70
2022/10/08 11:38:32;;;;;;;11.60;3.20;;;;;;;;;;4995154;28;20053;-66
2022/10/08 11:41:03;;;;;;;10.73;3.15;;;;;;;;;;4995044;28;20038;-67
2022/10/08 11:43:56;;;;;;;8.55;2.33;;;;;;;;;;4995067;28;20412;-67
2022/10/08 11:46:30;;;;;;;9.50;2.55;;;;;;;;;;4995139;28;20027;-68
2022/10/08 11:48:59;;;;;;;7.88;2.38;;;;;;;;;;4994868;28;20113;-68
2022/10/08 11:51:25;;;;;;;6.63;2.38;;;;;;;;;;4993875;28;20069;-68
2022/10/08 11:54:08;;;;;;;10.82;2.55;;;;;;;;;;4995247;28;20022;-67
2022/10/08 11:56:46;;;;;;;10.05;2.22;;;;;;;;;;4994802;28;20035;-66
2022/10/08 11:59:32;;;;;;;7.80;2.30;;;;;;;;;;4995222;28;20157;-67
2022/10/08 12:02:22;;;;;;;9.77;2.83;;;;;;;;;;4994945;28;20035;-69
2022/10/08 12:04:49;;;;;;;8.32;2.90;;;;;;;;;;4994857;28;20026;-68
2022/10/08 12:07:34;;;;;;;6.28;2.25;;;;;;;;;;4994805;28;20034;-67
2022/10/08 12:10:05;;;;;;;8.65;2.35;;;;;;;;;;4994520;28;20026;-67
2022/10/08 12:12:49;;;;;;;5.85;2.17;;;;;;;;;;4994816;28;20027;-67
2022/10/08 12:15:42;;;;;;;13.00;3.08;;;;;;;;;;4994706;28;20026;-68
2022/10/08 12:18:12;;;;;;;8.45;2.35;;;;;;;;;;4991735;28;20401;-67
2022/10/08 12:20:38;;;;;;;;;;;;;;;;;;4994816;28;20037;-67
2022/10/08 12:23:08;;;;;;;9.70;2.33;;;;;;;;;;4994706;28;19968;-67
2022/10/08 12:25:45;;;;;;;7.07;2.20;;;;;;;;;;4994312;28;20555;-67
2022/10/08 12:28:19;;;;;;;10.27;2.30;;;;;;;;;;4994609;28;20471;-67
2022/10/08 12:30:57;;;;;;;9.60;2.22;;;;;;;;;;4994480;28;20034;-67
2022/10/08 12:33:24;;;;;;;8.70;2.55;;;;;;;;;;4994403;28;20462;-67
2022/10/08 12:36:09;;;;;;;8.05;2.00;;;;;;;;;;4994466;28;20077;-66
2022/10/08 12:39:06;;;;;;;6.57;2.78;;;;;;;;;;4994205;28;20033;-67
2022/10/08 12:41:52;;;;;;;5.30;2.35;;;;;;;;;;4992562;28;20440;-71
2022/10/08 12:44:33;;;;;;;5.38;1.90;;;;;;;;;;4993799;28;20467;-68
2022/10/08 12:47:39;;;;;;;6.15;1.83;;;;;;;;;;4994288;28;20026;-68
2022/10/08 12:50:37;;;;;;;4.97;1.98;;;;;;;;;;4972288;28;20511;-70
2022/10/08 12:53:05;;;;;;;11.50;1.98;;;;;;;;;;4972441;28;20038;-70
2022/10/08 12:55:36;;;;;;;6.60;1.50;;;;;;;;;;4972640;28;20038;-69
2022/10/08 12:58:01;;;;;;;6.85;2.08;;;;;;;;;;4972513;28;20062;-71
2022/10/08 13:00:31;;;;;;;8.07;1.83;;;;;;;;;;4972284;28;20523;-67
2022/10/08 13:03:06;;;;;;;7.55;1.90;;;;;;;;;;4972414;28;20074;-67
2022/10/08 13:05:37;;;;;;;7.03;1.83;;;;;;;;;;4972337;28;20034;-67
2022/10/08 13:08:38;;;;;;;7.63;1.77;;;;;;;;;;4972132;28;20073;-68
2022/10/08 13:11:13;;;;;;;7.13;1.80;;;;;;;;;;4972212;28;20075;-66
2022/10/08 13:13:39;;;;;;;10.50;1.73;;;;;;;;;;4972251;28;20035;-67
2022/10/08 13:16:05;;;;;;;8.35;1.65;;;;;;;;;;4972133;28;20154;-68
2022/10/08 13:18:32;;;;;;;8.48;1.60;;;;;;;;;;4971936;28;20051;-68
2022/10/08 13:21:03;;;;;;;9.63;1.88;;;;;;;;;;4972041;28;20026;-67
2022/10/08 13:23:38;;;;;;;8.63;1.98;;;;;;;;;;4978182;28;20046;-66
2022/10/08 13:26:38;;;;;;;7.72;1.65;;;;;;;;;;4993107;28;20022;-72
2022/10/08 13:29:22;;;;;;;;;;;;;;;;;;4993926;28;20440;-71
2022/10/08 13:32:12;;;;;;;6.18;1.83;;;;;;;;;;4993579;28;20417;-67
2022/10/08 13:34:38;;;;;;;5.40;1.85;;;;;;;;;;4993527;28;20058;-66
2022/10/08 13:37:07;;;;;;;8.35;1.88;;;;;;;;;;4993177;28;20022;-66
2022/10/08 13:39:38;;;;;;;10.90;1.73;;;;;;;;;;4993344;28;20073;-66
2022/10/08 13:42:13;;;;;;;4.55;1.52;;;;;;;;;;4993579;28;20034;-67
2022/10/08 13:44:39;;;;;;;5.43;1.35;;;;;;;;;;4993383;28;20062;-66
2022/10/08 13:47:08;;;;;;;6.63;1.90;;;;;;;;;;4993290;28;20081;-66
2022/10/08 13:49:33;;;;;;;6.47;1.60;;;;;;;;;;4992931;28;20410;-66
2022/10/08 13:52:00;;;;;;;6.80;2.00;;;;;;;;;;4993039;28;20031;-66
2022/10/08 13:54:29;;;;;;;7.45;1.75;;;;;;;;;;4993326;28;20031;-66
2022/10/08 13:56:55;;;;;;;4.88;1.77;;;;;;;;;;4995074;28;20487;-66
2022/10/08 13:59:22;;;;;;;10.40;2.10;;;;;;;;;;4997242;28;20030;-66
2022/10/08 14:01:47;;;;;;;6.65;1.92;;;;;;;;;;4997342;28;20026;-67
2022/10/08 14:04:14;;;;;;;6.65;1.80;;;;;;;;;;4997114;28;20030;-66
2022/10/08 14:06:41;;;;;;;9.40;2.03;;;;;;;;;;4996779;28;20019;-68
2022/10/08 14:09:17;;;;;;;10.85;2.00;;;;;;;;;;4997116;28;20053;-66
2022/10/08 14:11:44;;;;;;;6.85;2.13;;;;;;;;;;4997254;28;20037;-67
2022/10/08 14:14:12;;;;;;;8.05;2.70;;;;;;;;;;4997052;28;20022;-66
2022/10/08 14:16:37;;;;;;;9.32;2.95;;;;;;;;;;4996972;28;20031;-68
2022/10/08 14:19:03;;;;;;;5.78;2.00;;;;;;;;;;4996753;28;20038;-66
2022/10/08 14:21:28;;;;;;;6.38;1.92;;;;;;;;;;4996419;28;20065;-66
2022/10/08 14:23:54;;;;;;;6.13;1.60;;;;;;;;;;4996744;28;20483;-67
2022/10/08 14:26:19;;;;;;;6.18;1.75;;;;;;;;;;4996848;28;20081;-66
2022/10/08 14:28:45;;;;;;;8.23;1.70;;;;;;;;;;4996644;28;20026;-67
2022/10/08 14:31:12;;;;;;;7.00;1.70;;;;;;;;;;4996548;28;20022;-67
2022/10/08 14:33:38;;;;;;;5.63;1.70;;;;;;;;;;4996887;28;20034;-67
2022/10/08 14:36:11;;;;;;;5.60;1.75;;;;;;;;;;4996527;28;20038;-68
2022/10/08 14:38:36;;;;;;;10.07;1.90;;;;;;;;;;4996621;28;20030;-67
2022/10/08 14:41:02;;;;;;;9.00;2.90;;;;;;;;;;4996496;28;20341;-68
2022/10/08 14:43:27;;;;;;;9.00;3.58;;;;;;;;;;4996285;28;20023;-72
2022/10/08 14:45:53;;;;;;;15.40;3.78;;;;;;;;;;4996502;28;20507;-69
2022/10/08 14:48:18;;;;;;;13.82;3.05;;;;;;;;;;4996535;28;20084;-67
2022/10/08 14:50:43;;;;;;;8.10;1.80;;;;;;;;;;4996119;28;20490;-70
2022/10/08 14:53:09;;;;;;;9.00;2.67;;;;;;;;;;4996484;28;20026;-67
2022/10/08 14:55:35;;;;;;;7.55;2.10;;;;;;;;;;4996321;28;20038;-67
2022/10/08 14:58:00;;;;;;;6.47;1.65;;;;;;;;;;4996345;28;20365;-69
2022/10/08 15:00:26;;;;;;;4.00;1.40;;;;;;;;;;4996204;28;20057;-68
2022/10/08 15:02:51;;;;;;;2.92;1.30;;;;;;;;;;4996259;28;20053;-68